Sacramento, California
Traffic Map
Current Weather Conditions
Sacramento, California
Overcast
Overcast
49°
Feels Like: 44°
Wind Chill: 44° Ceiling: 6000
Heat Index: 49° Visibility: 10mi
Dew Point: 46° Wind: 12mph
Humidity: 90% Direction: 170° (S)
Pressure: 29.8in Gusts: 17mph
Raw Report DataKSAC 190853Z AUTO 17010G15KT 10SM BKN060 OVC080 09/08 A2980 RMK AO2 RAB39E49 SLP091 P0000 60000 T00940078 50009
Traffic Incident Summary
Active as of:
Severity:
Category:
InformationThere was an issue retrieving the traffic information for this location. Please try a different location or try again shortly.
Advertisements
Track Severe Weather on mobile